Time;durP1;ratioP1;P1;durP2;ratioP2;P2;SDS_P1;SDS_P2;PMS_P1;PMS_P2;Temp;Humidity;BMP_temperature;BMP_pressure;BME280_temperature;BME280_humidity;BME280_pressure;Samples;Min_cycle;Max_cycle;Signal;HPM_P1;HPM_P2
2023/04/12 00:00:36;;;;;;;5.40;2.47;;;;;;;;;;4868882;28;98564;-79
2023/04/12 00:03:04;;;;;;;11.57;2.45;;;;;;;;;;4870063;28;100092;-78
2023/04/12 00:05:31;;;;;;;13.00;2.85;;;;;;;;;;4872259;28;99970;-79
2023/04/12 00:07:59;;;;;;;8.52;3.03;;;;;;;;;;4888011;28;100067;-79
2023/04/12 00:10:26;;;;;;;10.48;2.78;;;;;;;;;;4888621;28;100343;-79
2023/04/12 00:12:52;;;;;;;10.90;2.42;;;;;;;;;;4891101;28;99989;-80
2023/04/12 00:15:19;;;;;;;10.88;2.80;;;;;;;;;;4888613;28;100716;-79
2023/04/12 00:17:45;;;;;;;7.03;2.35;;;;;;;;;;4889403;28;99140;-80
2023/04/12 00:20:12;;;;;;;8.35;2.55;;;;;;;;;;4889947;28;100095;-81
2023/04/12 00:22:40;;;;;;;8.15;3.33;;;;;;;;;;4895750;28;99530;-81
2023/04/12 00:25:06;;;;;;;8.52;2.28;;;;;;;;;;4905469;28;99888;-81
2023/04/12 00:27:33;;;;;;;10.05;2.58;;;;;;;;;;4903856;28;99937;-81
2023/04/12 00:29:59;;;;;;;8.18;2.45;;;;;;;;;;4895221;28;102101;-81
2023/04/12 00:32:26;;;;;;;6.07;2.50;;;;;;;;;;4898022;28;100161;-81
2023/04/12 00:34:52;;;;;;;7.65;1.63;;;;;;;;;;4902160;28;98957;-81
2023/04/12 00:37:19;;;;;;;8.60;1.58;;;;;;;;;;4901911;28;98618;-81
2023/04/12 00:39:45;;;;;;;2.15;1.55;;;;;;;;;;4900945;28;99972;-81
2023/04/12 00:42:12;;;;;;;6.90;2.03;;;;;;;;;;4898697;28;98576;-80
2023/04/12 00:44:38;;;;;;;4.30;1.67;;;;;;;;;;4897053;28;99025;-80
2023/04/12 00:47:05;;;;;;;5.93;2.00;;;;;;;;;;4893763;28;99118;-80
2023/04/12 00:49:33;;;;;;;2.88;1.50;;;;;;;;;;4891384;28;99308;-80
2023/04/12 00:52:02;;;;;;;2.38;1.20;;;;;;;;;;4893051;28;99146;-81
2023/04/12 00:54:29;;;;;;;5.97;1.60;;;;;;;;;;4896961;28;99987;-79
2023/04/12 00:56:56;;;;;;;6.20;1.60;;;;;;;;;;4889838;28;99144;-79
2023/04/12 00:59:23;;;;;;;6.15;1.75;;;;;;;;;;4890016;28;99216;-80
2023/04/12 01:01:51;;;;;;;2.97;1.55;;;;;;;;;;4889597;28;100172;-81
2023/04/12 01:04:17;;;;;;;3.88;1.48;;;;;;;;;;4888916;28;100081;-79
2023/04/12 01:06:52;;;;;;;3.53;1.85;;;;;;;;;;4888420;28;98789;-79
2023/04/12 01:09:27;;;;;;;4.32;1.90;;;;;;;;;;4886141;28;100197;-80
2023/04/12 01:11:58;;;;;;;4.50;1.90;;;;;;;;;;4888738;28;98957;-81
2023/04/12 01:14:39;;;;;;;2.73;2.17;;;;;;;;;;4885503;28;100082;-81
2023/04/12 01:17:07;;;;;;;5.20;2.13;;;;;;;;;;4887826;28;102270;-80
2023/04/12 01:19:52;;;;;;;4.55;2.15;;;;;;;;;;4886181;28;101469;-80
2023/04/12 01:22:29;;;;;;;11.02;2.50;;;;;;;;;;4888192;28;99090;-81
2023/04/12 01:25:15;;;;;;;4.43;2.60;;;;;;;;;;4889499;28;102051;-81
2023/04/12 01:27:43;;;;;;;5.55;2.20;;;;;;;;;;4887705;28;100875;-80
2023/04/12 01:30:11;;;;;;;9.23;2.35;;;;;;;;;;4888507;28;99547;-81
2023/04/12 01:32:39;;;;;;;7.50;2.60;;;;;;;;;;4887400;28;99408;-80
2023/04/12 01:35:07;;;;;;;9.23;2.28;;;;;;;;;;4885964;28;101693;-81
2023/04/12 01:37:34;;;;;;;9.40;2.45;;;;;;;;;;4889819;28;101085;-81
2023/04/12 01:40:04;;;;;;;5.68;2.10;;;;;;;;;;4895431;28;98994;-81
2023/04/12 01:42:31;;;;;;;5.32;2.25;;;;;;;;;;4885324;28;102264;-81
2023/04/12 01:44:57;;;;;;;5.53;2.05;;;;;;;;;;4886814;28;101917;-81
2023/04/12 01:47:24;;;;;;;3.30;1.98;;;;;;;;;;4886962;28;100747;-80
2023/04/12 01:50:12;;;;;;;2.78;1.67;;;;;;;;;;4871145;28;100088;-81
2023/04/12 01:52:42;;;;;;;4.85;1.98;;;;;;;;;;4887425;28;98906;-81
2023/04/12 01:55:08;;;;;;;6.28;2.25;;;;;;;;;;4895525;28;98853;-81
2023/04/12 01:57:36;;;;;;;6.00;2.15;;;;;;;;;;4893908;28;99012;-81
2023/04/12 02:00:05;;;;;;;3.58;2.30;;;;;;;;;;4891149;28;101697;-81
2023/04/12 02:02:38;;;;;;;4.72;1.90;;;;;;;;;;4896188;28;98592;-81
2023/04/12 02:05:06;;;;;;;6.80;2.00;;;;;;;;;;4894959;28;98680;-81
2023/04/12 02:07:34;;;;;;;4.88;2.20;;;;;;;;;;4884491;28;99134;-80
2023/04/12 02:10:00;;;;;;;10.30;1.98;;;;;;;;;;4886214;28;99978;-81
2023/04/12 02:12:26;;;;;;;4.72;2.10;;;;;;;;;;4888363;28;100244;-80
2023/04/12 02:14:54;;;;;;;8.63;2.38;;;;;;;;;;4891314;28;98655;-80
2023/04/12 02:17:20;;;;;;;2.72;2.17;;;;;;;;;;4890061;28;100140;-80
2023/04/12 02:19:47;;;;;;;3.42;1.98;;;;;;;;;;4904546;28;101489;-80
2023/04/12 02:22:14;;;;;;;7.50;2.45;;;;;;;;;;4889427;28;100120;-80
2023/04/12 02:24:41;;;;;;;7.95;2.80;;;;;;;;;;4893795;28;99637;-80
2023/04/12 02:27:07;;;;;;;3.42;1.85;;;;;;;;;;4890082;28;100498;-80
2023/04/12 02:29:35;;;;;;;3.75;2.00;;;;;;;;;;4889239;28;100092;-80
2023/04/12 02:32:02;;;;;;;8.68;2.33;;;;;;;;;;4889128;28;101730;-81
2023/04/12 02:34:33;;;;;;;6.10;2.88;;;;;;;;;;4888364;28;99215;-80
2023/04/12 02:37:09;;;;;;;5.85;2.28;;;;;;;;;;4888970;28;100546;-80
2023/04/12 02:39:36;;;;;;;4.65;2.25;;;;;;;;;;4890214;28;98864;-81
2023/04/12 02:42:03;;;;;;;4.93;2.10;;;;;;;;;;4888192;28;101045;-82
2023/04/12 02:44:30;;;;;;;1.95;1.58;;;;;;;;;;4889975;28;99228;-81
2023/04/12 02:47:09;;;;;;;5.63;2.03;;;;;;;;;;4895179;28;98530;-80
2023/04/12 02:49:36;;;;;;;5.53;2.22;;;;;;;;;;4888957;28;101981;-81
2023/04/12 02:52:04;;;;;;;5.45;2.17;;;;;;;;;;4890425;28;101697;-81
2023/04/12 02:54:38;;;;;;;9.52;2.40;;;;;;;;;;4891170;28;98587;-81
2023/04/12 02:57:10;;;;;;;4.15;2.25;;;;;;;;;;4890872;28;100095;-80
2023/04/12 02:59:42;;;;;;;8.57;2.40;;;;;;;;;;4896492;28;99877;-80
2023/04/12 03:02:21;;;;;;;3.47;2.33;;;;;;;;;;4896085;28;100589;-80
2023/04/12 03:04:52;;;;;;;7.82;2.25;;;;;;;;;;4895577;28;101643;-81
2023/04/12 03:07:22;;;;;;;7.90;2.28;;;;;;;;;;4889191;28;101736;-80
2023/04/12 03:09:51;;;;;;;5.88;2.00;;;;;;;;;;4889769;28;100685;-80
2023/04/12 03:12:19;;;;;;;6.32;2.50;;;;;;;;;;4880953;28;100973;-80
2023/04/12 03:14:56;;;;;;;4.10;2.10;;;;;;;;;;4918518;28;100347;-81
2023/04/12 03:17:25;;;;;;;9.75;2.28;;;;;;;;;;4908688;28;98039;-81
2023/04/12 03:19:54;;;;;;;7.78;2.38;;;;;;;;;;4892523;28;98582;-79
2023/04/12 03:22:24;;;;;;;8.30;2.70;;;;;;;;;;4875713;28;100685;-80
2023/04/12 03:24:56;;;;;;;6.77;2.10;;;;;;;;;;4869840;28;101846;-80
2023/04/12 03:27:22;;;;;;;9.75;2.95;;;;;;;;;;4872638;28;98708;-80
2023/04/12 03:29:51;;;;;;;6.20;2.90;;;;;;;;;;4873105;28;101607;-80
2023/04/12 03:32:19;;;;;;;7.43;2.72;;;;;;;;;;4874920;28;99186;-80
2023/04/12 03:34:46;;;;;;;9.57;2.70;;;;;;;;;;4889185;28;98910;-79
2023/04/12 03:37:16;;;;;;;6.38;2.50;;;;;;;;;;4886530;28;100509;-80
2023/04/12 03:39:46;;;;;;;7.25;2.92;;;;;;;;;;4888316;28;100109;-80
2023/04/12 03:42:17;;;;;;;5.93;2.50;;;;;;;;;;4889352;28;100331;-80
2023/04/12 03:45:03;;;;;;;6.07;2.80;;;;;;;;;;4887287;28;101815;-80
2023/04/12 03:47:30;;;;;;;12.38;3.15;;;;;;;;;;4888210;28;100106;-80
2023/04/12 03:50:09;;;;;;;7.07;2.80;;;;;;;;;;4903885;28;101165;-82
2023/04/12 03:52:43;;;;;;;5.35;2.53;;;;;;;;;;4906914;28;101784;-79
2023/04/12 03:55:10;;;;;;;6.57;2.20;;;;;;;;;;4887019;28;99531;-79
2023/04/12 03:57:37;;;;;;;7.10;2.90;;;;;;;;;;4886917;28;101032;-79
2023/04/12 04:00:07;;;;;;;8.68;2.80;;;;;;;;;;4887026;28;100123;-80
2023/04/12 04:02:52;;;;;;;13.23;3.08;;;;;;;;;;4886759;28;98463;-79
2023/04/12 04:05:19;;;;;;;6.45;2.65;;;;;;;;;;4886156;28;102009;-80
2023/04/12 04:07:46;;;;;;;6.43;2.75;;;;;;;;;;4888115;28;99086;-81
2023/04/12 04:10:14;;;;;;;5.75;2.63;;;;;;;;;;4887554;28;100481;-80
2023/04/12 04:12:42;;;;;;;8.20;2.50;;;;;;;;;;4886183;28;99225;-81
2023/04/12 04:15:10;;;;;;;3.65;2.20;;;;;;;;;;4890459;28;101350;-80
2023/04/12 04:17:37;;;;;;;7.35;3.30;;;;;;;;;;4888127;28;99342;-81
2023/04/12 04:20:04;;;;;;;5.20;2.25;;;;;;;;;;4886791;28;101186;-81
2023/04/12 04:22:33;;;;;;;5.13;2.30;;;;;;;;;;4887251;28;99384;-81
2023/04/12 04:25:02;;;;;;;5.20;2.20;;;;;;;;;;4886968;28;100920;-81
2023/04/12 04:27:33;;;;;;;2.60;1.80;;;;;;;;;;4902203;28;98960;-79
2023/04/12 04:30:01;;;;;;;5.05;2.50;;;;;;;;;;4886948;28;100114;-81
2023/04/12 04:32:28;;;;;;;4.15;2.50;;;;;;;;;;4887532;28;100477;-82
2023/04/12 04:34:58;;;;;;;5.28;2.60;;;;;;;;;;4887837;28;98887;-80
2023/04/12 04:37:39;;;;;;;9.05;2.50;;;;;;;;;;4906552;28;101368;-80
2023/04/12 04:40:12;;;;;;;7.55;2.72;;;;;;;;;;4896912;28;100924;-80
2023/04/12 04:42:38;;;;;;;6.50;2.92;;;;;;;;;;4886951;28;102457;-79
2023/04/12 04:45:12;;;;;;;4.75;2.55;;;;;;;;;;4887066;28;99419;-80
2023/04/12 04:47:41;;;;;;;4.57;2.50;;;;;;;;;;4886457;28;101278;-80
2023/04/12 04:50:08;;;;;;;6.78;2.88;;;;;;;;;;4887233;28;100357;-80
2023/04/12 04:52:36;;;;;;;5.53;2.95;;;;;;;;;;4886898;28;101624;-79
2023/04/12 04:55:07;;;;;;;2.40;2.20;;;;;;;;;;4886081;28;101824;-79
2023/04/12 04:57:37;;;;;;;7.80;3.10;;;;;;;;;;4890248;28;102219;-78
2023/04/12 05:00:10;;;;;;;6.97;3.30;;;;;;;;;;4887089;28;99954;-79
2023/04/12 05:02:41;;;;;;;8.40;3.22;;;;;;;;;;4886016;28;101846;-78
2023/04/12 05:05:32;;;;;;;4.38;3.17;;;;;;;;;;4886101;28;100334;-80
2023/04/12 05:08:06;;;;;;;6.38;3.22;;;;;;;;;;4886460;28;101124;-78
2023/04/12 05:10:34;;;;;;;5.43;2.83;;;;;;;;;;4885882;28;101224;-79
2023/04/12 05:13:01;;;;;;;6.53;2.65;;;;;;;;;;4886764;28;102079;-79
2023/04/12 05:15:29;;;;;;;4.20;2.70;;;;;;;;;;4885613;28;101716;-80
2023/04/12 05:17:57;;;;;;;2.20;2.10;;;;;;;;;;4890081;28;98614;-80
2023/04/12 05:20:23;;;;;;;5.55;2.97;;;;;;;;;;4894716;28;99206;-80
2023/04/12 05:22:50;;;;;;;8.07;3.38;;;;;;;;;;4889094;28;101575;-79
2023/04/12 05:25:16;;;;;;;3.08;2.70;;;;;;;;;;4891308;28;98893;-79
2023/04/12 05:27:50;;;;;;;3.90;3.30;;;;;;;;;;4890059;28;99529;-80
2023/04/12 05:30:18;;;;;;;3.13;2.55;;;;;;;;;;4888476;28;99281;-80
2023/04/12 05:32:45;;;;;;;5.78;3.50;;;;;;;;;;4889683;28;102327;-79
2023/04/12 05:35:13;;;;;;;3.55;2.20;;;;;;;;;;4889942;28;101831;-80
2023/04/12 05:37:41;;;;;;;4.43;2.70;;;;;;;;;;4889305;28;101082;-79
2023/04/12 05:40:08;;;;;;;2.95;2.67;;;;;;;;;;4903325;28;100190;-79
2023/04/12 05:42:36;;;;;;;7.65;2.78;;;;;;;;;;4873758;28;99012;-79
2023/04/12 05:45:03;;;;;;;6.68;3.35;;;;;;;;;;4886042;28;101826;-79
2023/04/12 05:47:31;;;;;;;3.78;3.22;;;;;;;;;;4870918;28;99109;-80
2023/04/12 05:49:57;;;;;;;6.93;3.40;;;;;;;;;;4898427;28;100743;-79
2023/04/12 05:52:25;;;;;;;10.73;3.40;;;;;;;;;;4888388;28;101892;-79
2023/04/12 05:54:52;;;;;;;3.50;3.20;;;;;;;;;;4888731;28;101449;-79
2023/04/12 05:57:21;;;;;;;15.05;3.85;;;;;;;;;;4889205;28;98815;-79
2023/04/12 05:59:47;;;;;;;4.65;2.83;;;;;;;;;;4884833;28;101366;-80
2023/04/12 06:02:16;;;;;;;5.07;3.70;;;;;;;;;;4870263;28;101731;-79
2023/04/12 06:04:42;;;;;;;5.28;3.80;;;;;;;;;;4891814;28;98941;-78
2023/04/12 06:07:18;;;;;;;4.53;3.53;;;;;;;;;;4888938;28;101349;-79
2023/04/12 06:09:44;;;;;;;6.03;3.53;;;;;;;;;;4889479;28;100302;-79
2023/04/12 06:12:11;;;;;;;4.35;3.42;;;;;;;;;;4888950;28;99416;-79
2023/04/12 06:14:38;;;;;;;3.33;3.03;;;;;;;;;;4904670;28;101177;-78
2023/04/12 06:17:05;;;;;;;6.55;3.50;;;;;;;;;;4888904;28;100905;-78
2023/04/12 06:19:32;;;;;;;3.25;2.75;;;;;;;;;;4888771;28;99814;-78
2023/04/12 06:21:58;;;;;;;3.40;2.85;;;;;;;;;;4889133;28;101821;-79
2023/04/12 06:24:25;;;;;;;3.40;2.75;;;;;;;;;;4888767;28;101251;-79
2023/04/12 06:26:51;;;;;;;7.38;2.92;;;;;;;;;;4895894;28;99277;-78
2023/04/12 06:29:18;;;;;;;3.25;2.83;;;;;;;;;;4904537;28;98986;-78
2023/04/12 06:31:45;;;;;;;3.60;3.30;;;;;;;;;;4897747;28;100111;-78
2023/04/12 06:34:12;;;;;;;4.18;3.47;;;;;;;;;;4887955;28;99777;-78
2023/04/12 06:36:40;;;;;;;3.78;3.45;;;;;;;;;;4888265;28;101447;-78
2023/04/12 06:39:07;;;;;;;3.55;3.25;;;;;;;;;;4890192;28;99898;-78
2023/04/12 06:41:33;;;;;;;4.43;3.40;;;;;;;;;;4888109;28;99139;-78
2023/04/12 06:44:00;;;;;;;5.40;3.20;;;;;;;;;;4888173;28;99279;-78
2023/04/12 06:46:26;;;;;;;4.25;3.63;;;;;;;;;;4889412;28;99541;-78
2023/04/12 06:48:53;;;;;;;4.10;3.22;;;;;;;;;;4892266;28;99987;-78
2023/04/12 06:51:19;;;;;;;6.30;3.42;;;;;;;;;;4888574;28;100191;-79
2023/04/12 06:53:46;;;;;;;4.13;3.13;;;;;;;;;;4886768;28;99493;-78
2023/04/12 06:56:12;;;;;;;4.15;3.63;;;;;;;;;;4889683;28;100289;-78
2023/04/12 06:58:39;;;;;;;3.92;3.58;;;;;;;;;;4889407;28;100121;-77
2023/04/12 07:01:06;;;;;;;4.75;3.53;;;;;;;;;;4890386;28;100087;-80
2023/04/12 07:03:34;;;;;;;4.07;3.70;;;;;;;;;;4884983;28;99192;-77
2023/04/12 07:06:01;;;;;;;4.95;3.67;;;;;;;;;;4888518;28;99366;-76
2023/04/12 07:08:39;;;;;;;4.55;3.92;;;;;;;;;;4890423;28;100060;-76
2023/04/12 07:11:05;;;;;;;3.15;2.63;;;;;;;;;;4881518;28;100651;-75
2023/04/12 07:13:46;;;;;;;6.90;3.75;;;;;;;;;;4882039;28;99281;-76
2023/04/12 07:16:13;;;;;;;9.73;4.32;;;;;;;;;;4887944;28;100352;-77
2023/04/12 07:18:40;;;;;;;5.78;4.05;;;;;;;;;;4907400;28;100999;-76
2023/04/12 07:21:06;;;;;;;8.90;3.78;;;;;;;;;;4900968;28;100193;-77
2023/04/12 07:23:34;;;;;;;5.35;4.03;;;;;;;;;;4889426;28;99894;-76
2023/04/12 07:26:01;;;;;;;6.60;4.20;;;;;;;;;;4891359;28;98342;-77
2023/04/12 07:28:30;;;;;;;5.40;4.10;;;;;;;;;;4890854;28;100101;-76
2023/04/12 07:31:06;;;;;;;6.13;4.13;;;;;;;;;;4892640;28;99259;-77
2023/04/12 07:33:34;;;;;;;8.80;4.47;;;;;;;;;;4889651;28;99933;-76
2023/04/12 07:36:03;;;;;;;7.82;4.13;;;;;;;;;;4889682;28;102698;-77
2023/04/12 07:38:30;;;;;;;8.40;4.80;;;;;;;;;;4889750;28;100353;-77
2023/04/12 07:40:56;;;;;;;7.72;4.95;;;;;;;;;;4890049;28;99774;-78
2023/04/12 07:43:26;;;;;;;8.35;5.55;;;;;;;;;;4889865;28;100101;-77
2023/04/12 07:45:56;;;;;;;9.70;5.72;;;;;;;;;;4890811;28;100205;-77
2023/04/12 07:48:22;;;;;;;12.55;5.35;;;;;;;;;;4888394;28;100249;-77
2023/04/12 07:50:50;;;;;;;9.70;6.05;;;;;;;;;;4890406;28;99987;-77
2023/04/12 07:53:26;;;;;;;10.80;5.22;;;;;;;;;;4891733;28;99312;-77
2023/04/12 07:55:54;;;;;;;11.10;5.53;;;;;;;;;;4890103;28;99673;-78
2023/04/12 07:58:23;;;;;;;10.75;5.35;;;;;;;;;;4888534;28;100822;-77
2023/04/12 08:00:50;;;;;;;13.85;6.68;;;;;;;;;;4878457;28;100165;-77
2023/04/12 08:03:17;;;;;;;11.52;5.50;;;;;;;;;;4888939;28;99373;-76
2023/04/12 08:05:52;;;;;;;18.55;5.95;;;;;;;;;;4903913;28;100339;-76
2023/04/12 08:08:22;;;;;;;12.43;5.38;;;;;;;;;;4889251;28;99313;-77
2023/04/12 08:10:50;;;;;;;17.23;5.32;;;;;;;;;;4890442;28;98498;-76
2023/04/12 08:13:18;;;;;;;11.70;5.50;;;;;;;;;;4892362;28;100829;-76
2023/04/12 08:15:48;;;;;;;19.13;5.43;;;;;;;;;;4893876;28;100055;-76
2023/04/12 08:18:22;;;;;;;14.20;4.90;;;;;;;;;;4888873;28;99268;-76
2023/04/12 08:20:49;;;;;;;16.15;5.13;;;;;;;;;;4890082;28;98945;-77
2023/04/12 08:23:15;;;;;;;10.80;4.57;;;;;;;;;;4887910;28;99472;-76
2023/04/12 08:25:44;;;;;;;14.52;4.53;;;;;;;;;;4889406;28;100221;-77
2023/04/12 08:28:11;;;;;;;13.13;4.97;;;;;;;;;;4888356;28;99866;-76
2023/04/12 08:30:38;;;;;;;14.32;4.35;;;;;;;;;;4889556;28;101186;-77
2023/04/12 08:33:05;;;;;;;19.85;4.80;;;;;;;;;;4887549;28;100216;-77
2023/04/12 08:35:31;;;;;;;11.88;4.28;;;;;;;;;;4886455;28;100108;-76
2023/04/12 08:38:05;;;;;;;15.38;4.05;;;;;;;;;;4889304;28;99921;-77
2023/04/12 08:40:31;;;;;;;16.67;4.45;;;;;;;;;;4886906;28;99993;-78
2023/04/12 08:43:00;;;;;;;19.77;4.40;;;;;;;;;;4885143;28;99257;-77
2023/04/12 08:45:28;;;;;;;13.18;3.67;;;;;;;;;;4884303;28;99285;-77
2023/04/12 08:47:54;;;;;;;20.20;4.50;;;;;;;;;;4878125;28;100378;-77
2023/04/12 08:50:21;;;;;;;24.30;4.38;;;;;;;;;;4887603;28;100653;-77
2023/04/12 08:52:48;;;;;;;18.70;5.13;;;;;;;;;;4889035;28;100223;-77
2023/04/12 08:55:14;;;;;;;16.67;4.28;;;;;;;;;;4889870;28;100560;-77
2023/04/12 08:57:41;;;;;;;19.55;4.97;;;;;;;;;;4891339;28;100279;-77
2023/04/12 09:00:08;;;;;;;23.38;4.47;;;;;;;;;;4892957;28;99306;-77
2023/04/12 09:02:35;;;;;;;23.60;4.32;;;;;;;;;;4889277;28;100003;-77
2023/04/12 09:05:01;;;;;;;19.65;4.28;;;;;;;;;;4890867;28;99822;-77
2023/04/12 09:07:29;;;;;;;18.60;3.95;;;;;;;;;;4889257;28;98976;-77
2023/04/12 09:09:57;;;;;;;23.55;4.95;;;;;;;;;;4890328;28;100044;-77
2023/04/12 09:12:23;;;;;;;18.40;4.38;;;;;;;;;;4888053;28;100939;-77
2023/04/12 09:15:04;;;;;;;27.55;4.40;;;;;;;;;;4881177;28;98924;-78
2023/04/12 09:17:32;;;;;;;12.70;4.40;;;;;;;;;;4890196;28;99857;-78
2023/04/12 09:19:59;;;;;;;17.80;3.83;;;;;;;;;;4894146;28;100447;-78
2023/04/12 09:22:32;;;;;;;15.82;4.75;;;;;;;;;;4890756;28;100318;-82
2023/04/12 09:24:58;;;;;;;21.60;5.03;;;;;;;;;;4891865;28;99379;-79
2023/04/12 09:27:27;;;;;;;15.88;4.03;;;;;;;;;;4889576;28;99270;-77
2023/04/12 09:30:06;;;;;;;16.60;4.00;;;;;;;;;;4883979;28;99220;-78
2023/04/12 09:32:32;;;;;;;24.77;5.15;;;;;;;;;;4890697;28;100299;-78
2023/04/12 09:35:04;;;;;;;15.48;4.03;;;;;;;;;;4892298;28;100141;-79
2023/04/12 09:37:30;;;;;;;25.20;4.95;;;;;;;;;;4890702;28;100142;-79
2023/04/12 09:40:03;;;;;;;21.92;4.32;;;;;;;;;;4891035;28;100627;-79
2023/04/12 09:42:32;;;;;;;21.98;4.03;;;;;;;;;;4875626;28;100793;-79
2023/04/12 09:45:17;;;;;;;17.10;4.40;;;;;;;;;;4890607;28;100470;-79
2023/04/12 09:47:44;;;;;;;26.17;4.25;;;;;;;;;;4885860;28;100022;-78
2023/04/12 09:50:19;;;;;;;24.40;4.53;;;;;;;;;;4886791;28;99097;-79
2023/04/12 09:52:45;;;;;;;16.77;4.38;;;;;;;;;;4890065;28;99237;-79
2023/04/12 09:55:12;;;;;;;17.88;4.38;;;;;;;;;;4887840;28;99134;-80
2023/04/12 09:57:42;;;;;;;14.82;3.72;;;;;;;;;;4890257;28;99537;-80
2023/04/12 10:00:16;;;;;;;18.20;4.13;;;;;;;;;;4890644;28;100223;-80
2023/04/12 10:02:44;;;;;;;19.73;5.03;;;;;;;;;;4891040;28;100029;-80
2023/04/12 10:05:14;;;;;;;25.90;4.97;;;;;;;;;;4894476;28;100552;-79
2023/04/12 10:07:41;;;;;;;21.05;4.53;;;;;;;;;;4890963;28;99168;-79
2023/04/12 10:10:08;;;;;;;19.80;3.60;;;;;;;;;;4897764;28;99972;-81
2023/04/12 10:12:35;;;;;;;22.15;4.20;;;;;;;;;;4897312;28;100399;-80
2023/04/12 10:15:03;;;;;;;21.90;3.88;;;;;;;;;;4897609;28;99400;-79
2023/04/12 10:17:31;;;;;;;26.00;4.35;;;;;;;;;;4891669;28;100081;-79
2023/04/12 10:19:58;;;;;;;15.07;4.15;;;;;;;;;;4895219;28;98669;-82
2023/04/12 10:22:24;;;;;;;22.40;3.92;;;;;;;;;;4887617;28;100388;-77
2023/04/12 10:24:51;;;;;;;15.98;3.50;;;;;;;;;;4892399;28;100190;-79
2023/04/12 10:27:25;;;;;;;19.92;4.13;;;;;;;;;;4892484;28;100375;-79
2023/04/12 10:29:51;;;;;;;17.13;4.18;;;;;;;;;;4889096;28;100784;-79
2023/04/12 10:32:22;;;;;;;20.95;4.65;;;;;;;;;;4890844;28;100902;-79
2023/04/12 10:34:57;;;;;;;15.88;3.83;;;;;;;;;;4893105;28;100797;-79
2023/04/12 10:37:43;;;;;;;20.85;4.15;;;;;;;;;;4896078;28;99046;-80
2023/04/12 10:40:15;;;;;;;25.02;5.03;;;;;;;;;;4889711;28;99661;-77
2023/04/12 10:42:41;;;;;;;21.63;5.05;;;;;;;;;;4889507;28;100040;-79
2023/04/12 10:45:23;;;;;;;25.55;5.20;;;;;;;;;;4886138;28;100092;-76
2023/04/12 10:47:57;;;;;;;22.30;4.35;;;;;;;;;;4893121;28;100197;-79
2023/04/12 10:50:25;;;;;;;22.88;4.57;;;;;;;;;;4904646;28;98812;-79
2023/04/12 10:53:11;;;;;;;24.55;4.43;;;;;;;;;;4900295;28;101192;-79
2023/04/12 10:55:38;;;;;;;25.42;4.15;;;;;;;;;;4905458;28;99292;-80
2023/04/12 10:58:04;;;;;;;21.63;4.47;;;;;;;;;;4889311;28;99181;-79
2023/04/12 11:00:49;;;;;;;32.38;4.45;;;;;;;;;;4883927;28;99334;-77
2023/04/12 11:03:16;;;;;;;20.75;4.10;;;;;;;;;;4889754;28;100271;-80
2023/04/12 11:06:17;;;;;;;21.27;4.55;;;;;;;;;;4890164;28;99093;-76
2023/04/12 11:09:31;;;;;;;25.88;4.80;;;;;;;;;;4876491;28;99029;-75
2023/04/12 11:12:05;;;;;;;20.67;4.72;;;;;;;;;;4879611;28;101237;-75
2023/04/12 11:14:35;;;;;;;23.02;4.15;;;;;;;;;;4890972;28;99403;-76
2023/04/12 11:17:05;;;;;;;15.23;3.95;;;;;;;;;;4889438;28;100329;-76
2023/04/12 11:19:38;;;;;;;21.73;5.05;;;;;;;;;;4892198;28;99338;-79
2023/04/12 11:22:07;;;;;;;18.88;4.28;;;;;;;;;;4893942;28;100063;-78
2023/04/12 11:24:38;;;;;;;19.15;3.95;;;;;;;;;;4889226;28;100715;-76
2023/04/12 11:27:07;;;;;;;24.43;4.77;;;;;;;;;;4891468;28;99048;-77
2023/04/12 11:29:35;;;;;;;14.00;3.70;;;;;;;;;;4889811;28;100133;-78
2023/04/12 11:32:06;;;;;;;21.02;5.53;;;;;;;;;;4889760;28;99772;-76
2023/04/12 11:34:33;;;;;;;17.08;3.78;;;;;;;;;;4892285;28;99081;-76
2023/04/12 11:37:03;;;;;;;26.67;4.65;;;;;;;;;;4885317;28;99119;-77
2023/04/12 11:39:30;;;;;;;28.70;4.72;;;;;;;;;;4886985;28;100387;-79
2023/04/12 11:42:02;;;;;;;23.10;4.13;;;;;;;;;;4885741;28;99363;-77
2023/04/12 11:44:31;;;;;;;24.65;5.25;;;;;;;;;;4886351;28;100465;-77
2023/04/12 11:47:18;;;;;;;15.63;4.05;;;;;;;;;;4884700;28;100740;-77
2023/04/12 11:49:46;;;;;;;20.13;3.42;;;;;;;;;;4888275;28;102208;-78
2023/04/12 11:52:15;;;;;;;18.13;4.35;;;;;;;;;;4889471;28;99208;-76
2023/04/12 11:54:45;;;;;;;15.90;3.47;;;;;;;;;;4888267;28;99196;-79
2023/04/12 11:57:15;;;;;;;15.63;3.55;;;;;;;;;;4890462;28;100508;-77
2023/04/12 11:59:43;;;;;;;15.43;3.67;;;;;;;;;;4889346;28;100442;-76
2023/04/12 12:02:10;;;;;;;13.23;4.13;;;;;;;;;;4887252;28;99419;-77
2023/04/12 12:04:49;;;;;;;19.77;3.33;;;;;;;;;;4887107;28;100407;-78
2023/04/12 12:07:16;;;;;;;15.23;3.40;;;;;;;;;;4889588;28;100032;-78
2023/04/12 12:09:45;;;;;;;16.90;3.58;;;;;;;;;;4886793;28;101316;-78
2023/04/12 12:12:13;;;;;;;14.10;3.10;;;;;;;;;;4887664;28;99452;-77
2023/04/12 12:14:42;;;;;;;11.95;3.20;;;;;;;;;;4885550;28;101358;-77
2023/04/12 12:17:10;;;;;;;10.43;2.78;;;;;;;;;;4886521;28;100567;-78
2023/04/12 12:19:38;;;;;;;9.88;2.60;;;;;;;;;;4888753;28;99148;-78
2023/04/12 12:22:08;;;;;;;8.93;3.22;;;;;;;;;;4888749;28;100169;-77
2023/04/12 12:24:35;;;;;;;11.30;2.85;;;;;;;;;;4887918;28;100071;-78
2023/04/12 12:27:07;;;;;;;10.63;2.67;;;;;;;;;;4889353;28;99999;-77
2023/04/12 12:29:37;;;;;;;12.00;2.78;;;;;;;;;;4886441;28;100287;-78
2023/04/12 12:32:09;;;;;;;9.48;2.40;;;;;;;;;;4886893;28;98915;-78
2023/04/12 12:34:36;;;;;;;12.73;2.50;;;;;;;;;;4887025;28;99880;-76
2023/04/12 12:37:06;;;;;;;6.82;2.22;;;;;;;;;;4888557;28;100329;-78
2023/04/12 12:39:32;;;;;;;8.73;1.95;;;;;;;;;;4885408;28;100148;-77
2023/04/12 12:42:01;;;;;;;6.93;2.03;;;;;;;;;;4891917;28;100337;-77
2023/04/12 12:44:28;;;;;;;10.07;2.47;;;;;;;;;;4886745;28;99650;-77
2023/04/12 12:46:59;;;;;;;8.10;2.25;;;;;;;;;;4887669;28;100271;-76
2023/04/12 12:49:39;;;;;;;6.03;1.85;;;;;;;;;;4888931;28;99673;-78
2023/04/12 12:52:05;;;;;;;6.07;1.80;;;;;;;;;;4889034;28;98894;-77
2023/04/12 12:54:34;;;;;;;5.18;1.60;;;;;;;;;;4884298;28;99011;-77
2023/04/12 12:57:07;;;;;;;4.82;1.40;;;;;;;;;;4885495;28;99335;-78
2023/04/12 12:59:35;;;;;;;6.30;1.77;;;;;;;;;;4885483;28;101238;-77
2023/04/12 13:02:02;;;;;;;11.65;2.10;;;;;;;;;;4888308;28;100841;-77
2023/04/12 13:04:28;;;;;;;12.65;1.70;;;;;;;;;;4891053;28;100256;-77
2023/04/12 13:06:55;;;;;;;6.68;1.67;;;;;;;;;;4887884;28;99840;-77
2023/04/12 13:09:22;;;;;;;7.15;2.75;;;;;;;;;;4888687;28;100411;-79
2023/04/12 13:11:48;;;;;;;8.82;1.60;;;;;;;;;;4889570;28;99641;-77
2023/04/12 13:14:14;;;;;;;3.33;1.58;;;;;;;;;;4887377;28;99217;-78
2023/04/12 13:16:44;;;;;;;12.57;2.47;;;;;;;;;;4887000;28;99420;-79
2023/04/12 13:19:13;;;;;;;9.00;1.83;;;;;;;;;;4887584;28;98915;-78
2023/04/12 13:21:40;;;;;;;11.25;3.33;;;;;;;;;;4887325;28;99004;-79
2023/04/12 13:24:08;;;;;;;5.47;1.95;;;;;;;;;;4887678;28;101179;-78
2023/04/12 13:26:34;;;;;;;6.72;1.80;;;;;;;;;;4889725;28;98713;-77
2023/04/12 13:29:02;;;;;;;7.15;1.83;;;;;;;;;;4887068;28;100758;-78
2023/04/12 13:31:31;;;;;;;3.58;1.35;;;;;;;;;;4886488;28;100249;-76
2023/04/12 13:33:57;;;;;;;4.75;1.40;;;;;;;;;;4887926;28;100995;-78
2023/04/12 13:36:24;;;;;;;9.63;1.58;;;;;;;;;;4884659;28;99644;-78
2023/04/12 13:38:53;;;;;;;5.38;1.80;;;;;;;;;;4888027;28;100433;-78
2023/04/12 13:41:19;;;;;;;9.30;1.23;;;;;;;;;;4891608;28;99349;-77
2023/04/12 13:43:46;;;;;;;3.08;1.05;;;;;;;;;;4889073;28;99601;-78
2023/04/12 13:46:13;;;;;;;2.83;1.15;;;;;;;;;;4882969;28;100135;-79
2023/04/12 13:48:39;;;;;;;5.07;1.73;;;;;;;;;;4889406;28;101633;-78
2023/04/12 13:51:06;;;;;;;4.68;1.77;;;;;;;;;;4876450;28;100409;-79
2023/04/12 13:53:32;;;;;;;1.55;1.15;;;;;;;;;;4871540;28;99294;-78
2023/04/12 13:55:59;;;;;;;1.33;0.90;;;;;;;;;;4894289;28;100286;-78
2023/04/12 13:58:25;;;;;;;1.38;1.20;;;;;;;;;;4892548;28;100549;-77
2023/04/12 14:00:57;;;;;;;3.42;0.90;;;;;;;;;;4891816;28;99862;-77
2023/04/12 14:03:23;;;;;;;4.53;1.60;;;;;;;;;;4890076;28;100320;-77
2023/04/12 14:05:50;;;;;;;4.45;1.17;;;;;;;;;;4872686;28;100169;-78
2023/04/12 14:08:16;;;;;;;3.42;1.05;;;;;;;;;;4892695;28;100167;-77
2023/04/12 14:10:43;;;;;;;3.72;1.08;;;;;;;;;;4895503;28;100096;-77
2023/04/12 14:13:09;;;;;;;3.70;1.20;;;;;;;;;;4895178;28;99282;-77
2023/04/12 14:15:36;;;;;;;4.18;1.60;;;;;;;;;;4894326;28;100227;-77
2023/04/12 14:18:02;;;;;;;6.57;1.65;;;;;;;;;;4888956;28;100179;-77
2023/04/12 14:20:29;;;;;;;6.32;1.17;;;;;;;;;;4888385;28;99559;-78
2023/04/12 14:22:55;;;;;;;2.35;1.02;;;;;;;;;;4889221;28;99454;-77
2023/04/12 14:25:22;;;;;;;5.35;1.20;;;;;;;;;;4889592;28;99196;-78
2023/04/12 14:27:48;;;;;;;3.08;1.20;;;;;;;;;;4889248;28;99086;-76
2023/04/12 14:30:15;;;;;;;2.22;1.13;;;;;;;;;;4893113;28;99860;-78
2023/04/12 14:32:44;;;;;;;3.38;1.30;;;;;;;;;;4889701;28;100773;-77
2023/04/12 14:35:13;;;;;;;2.97;1.00;;;;;;;;;;4887581;28;100425;-78
2023/04/12 14:37:39;;;;;;;4.45;1.20;;;;;;;;;;4888186;28;99979;-78
2023/04/12 14:40:07;;;;;;;6.20;2.25;;;;;;;;;;4887792;28;100640;-77
2023/04/12 14:42:33;;;;;;;3.40;1.58;;;;;;;;;;4889563;28;100697;-78